Terminal Aerodrome Forecast
Issued by NWS

Home | Current Version | Previous Version | Text Only | Print | Product List | Glossary On
Versions: 1 2 3 4 5 6 7 8 9 10 11 12 13 14 15 16 17 18 19 20 21
000
FTUS44 KSJT 250500
TAFSOA
TAF
KSOA 250532Z 2506/2606 15005KT P6SM SKC
     FM250700 16008KT P6SM OVC009
     FM251200 17010KT P6SM VCTS OVC015CB
     FM251700 20014G20KT P6SM SKC
     FM260000 23007KT P6SM SKC=

USA.gov is the U.S. government's official web portal to all federal, state and local government web resources and services.